createdAt,value
2023-01-17T00:01:39.662Z,14.23
2023-01-17T00:04:53.021Z,14.00
2023-01-17T00:08:06.118Z,16.27
2023-01-17T00:11:04.465Z,17.53
2023-01-17T00:14:02.196Z,15.37
2023-01-17T00:17:01.849Z,18.87
2023-01-17T00:20:15.034Z,21.63
2023-01-17T00:27:00.883Z,23.73
2023-01-17T00:29:58.742Z,18.03
2023-01-17T00:32:56.644Z,18.87
2023-01-17T00:35:56.712Z,16.43
2023-01-17T00:38:54.490Z,19.90
2023-01-17T00:41:52.154Z,36.67
2023-01-17T00:45:05.290Z,34.87
2023-01-17T00:48:18.461Z,30.00
2023-01-17T00:51:32.337Z,25.47
2023-01-17T00:54:45.468Z,25.73
2023-01-17T00:57:58.924Z,25.90
2023-01-17T01:01:12.104Z,25.43
2023-01-17T01:04:25.356Z,23.60
2023-01-17T01:07:38.399Z,24.90
2023-01-17T01:10:52.501Z,25.63
2023-01-17T01:14:05.737Z,23.40
2023-01-17T01:17:19.022Z,25.70
2023-01-17T01:20:32.292Z,25.27
2023-01-17T01:23:45.922Z,19.20
2023-01-17T01:27:03.596Z,25.07
2023-01-17T01:30:17.366Z,24.10
2023-01-17T01:33:19.154Z,23.67
2023-01-17T01:36:17.051Z,24.00
2023-01-17T01:39:14.805Z,20.17
2023-01-17T01:42:17.163Z,22.50
2023-01-17T01:45:21.799Z,18.97
2023-01-17T01:48:38.735Z,20.67
2023-01-17T01:51:43.364Z,16.67
2023-01-17T01:54:47.992Z,19.13
2023-01-17T01:57:51.512Z,18.83
2023-01-17T02:00:49.842Z,22.90
2023-01-17T02:03:48.277Z,26.83
2023-01-17T02:06:52.245Z,31.87
2023-01-17T02:09:50.662Z,26.13
2023-01-17T02:12:49.713Z,32.10
2023-01-17T02:16:02.250Z,25.03
2023-01-17T02:19:27.478Z,26.20
2023-01-17T02:22:51.340Z,30.10
2023-01-17T02:26:24.533Z,27.83
2023-01-17T02:30:00.237Z,24.60
2023-01-17T02:33:20.008Z,31.63
2023-01-17T02:36:26.777Z,27.97
2023-01-17T02:39:33.483Z,29.33
2023-01-17T02:42:38.400Z,25.37
2023-01-17T02:45:36.263Z,24.87
2023-01-17T02:48:37.405Z,29.33
2023-01-17T02:52:11.377Z,21.07
2023-01-17T02:55:44.190Z,21.77
2023-01-17T02:59:07.276Z,26.30
2023-01-17T03:02:18.731Z,19.97
2023-01-17T03:05:38.709Z,20.90
2023-01-17T03:08:36.467Z,22.53
2023-01-17T03:11:34.907Z,21.00
2023-01-17T03:14:32.760Z,24.27
2023-01-17T03:17:33.712Z,22.93
2023-01-17T03:20:31.468Z,20.43
2023-01-17T03:23:29.317Z,25.53
2023-01-17T03:26:27.118Z,23.13
2023-01-17T03:29:25.222Z,21.60
2023-01-17T03:32:22.961Z,21.73
2023-01-17T03:35:21.118Z,20.10
2023-01-17T03:38:19.926Z,20.93
2023-01-17T03:41:17.763Z,21.53
2023-01-17T03:44:15.575Z,25.03
2023-01-17T03:47:13.580Z,23.23
2023-01-17T03:50:13.597Z,24.73
2023-01-17T03:53:11.468Z,22.83
2023-01-17T03:56:09.822Z,28.97
2023-01-17T03:59:07.637Z,26.90
2023-01-17T04:02:05.469Z,29.87
2023-01-17T04:05:03.628Z,29.13
2023-01-17T04:08:01.846Z,26.57
2023-01-17T04:10:59.708Z,32.83
2023-01-17T04:13:57.412Z,31.50
2023-01-17T04:16:55.978Z,30.97
2023-01-17T04:19:53.980Z,31.47
2023-01-17T04:22:51.790Z,30.70
2023-01-17T04:25:49.524Z,31.57
2023-01-17T04:28:47.465Z,32.80
2023-01-17T04:31:45.230Z,28.47
2023-01-17T04:34:43.482Z,29.27
2023-01-17T04:37:41.300Z,28.27
2023-01-17T04:40:39.227Z,26.07
2023-01-17T04:43:37.861Z,28.37
2023-01-17T04:46:35.769Z,29.83
2023-01-17T04:49:34.527Z,33.70
2023-01-17T04:52:32.456Z,31.57
2023-01-17T04:55:30.248Z,32.67
2023-01-17T04:58:28.269Z,30.10
2023-01-17T05:01:26.278Z,31.10
2023-01-17T05:04:24.394Z,28.83
2023-01-17T05:07:22.113Z,31.57
2023-01-17T05:10:19.949Z,32.50
2023-01-17T05:13:18.044Z,34.03
2023-01-17T05:16:19.470Z,36.47
2023-01-17T05:19:17.601Z,32.60
2023-01-17T05:22:16.637Z,36.27
2023-01-17T05:25:14.602Z,38.73
2023-01-17T05:28:13.781Z,38.30
2023-01-17T05:31:11.702Z,39.90
2023-01-17T05:34:09.654Z,42.50
2023-01-17T05:37:07.383Z,45.03
2023-01-17T05:40:06.735Z,44.37
2023-01-17T05:43:05.230Z,46.43
2023-01-17T05:46:03.168Z,43.23
2023-01-17T05:49:00.880Z,50.23
2023-01-17T05:51:59.024Z,48.57
2023-01-17T05:54:56.705Z,48.40
2023-01-17T05:57:55.345Z,48.80
2023-01-17T06:00:55.695Z,48.90
2023-01-17T06:03:53.552Z,49.20
2023-01-17T06:06:51.434Z,52.13
2023-01-17T06:09:49.268Z,50.23
2023-01-17T06:12:47.846Z,55.10
2023-01-17T06:15:45.688Z,52.77
2023-01-17T06:18:43.634Z,53.83
2023-01-17T06:21:41.436Z,54.93
2023-01-17T06:24:39.304Z,49.83
2023-01-17T06:27:37.141Z,54.40
2023-01-17T06:30:35.299Z,54.50
2023-01-17T06:33:33.170Z,52.20
2023-01-17T06:36:32.891Z,51.70
2023-01-17T06:39:30.689Z,53.60
2023-01-17T06:42:28.390Z,51.03
2023-01-17T06:45:26.458Z,46.47
2023-01-17T06:48:24.191Z,47.47
2023-01-17T06:51:22.141Z,46.03
2023-01-17T06:54:23.174Z,49.43
2023-01-17T06:57:21.087Z,47.90
2023-01-17T07:00:19.195Z,47.23
2023-01-17T07:03:27.633Z,48.40
2023-01-17T07:06:29.252Z,47.87
2023-01-17T07:09:27.059Z,44.57
2023-01-17T07:12:25.194Z,41.87
2023-01-17T07:15:22.987Z,45.90
2023-01-17T07:18:23.633Z,52.03
2023-01-17T07:21:21.480Z,55.90
2023-01-17T07:24:20.363Z,61.63
2023-01-17T07:27:18.431Z,61.53
2023-01-17T07:30:16.652Z,68.73
2023-01-17T07:33:15.088Z,68.93
2023-01-17T07:36:13.847Z,71.17
2023-01-17T07:39:11.870Z,68.47
2023-01-17T07:42:09.649Z,71.83
2023-01-17T07:45:08.243Z,71.83
2023-01-17T07:48:05.984Z,76.53
2023-01-17T07:51:03.837Z,71.33
2023-01-17T07:54:01.630Z,74.07
2023-01-17T07:57:00.521Z,68.90
2023-01-17T07:59:58.275Z,72.00
2023-01-17T08:03:00.302Z,70.33
2023-01-17T08:05:58.205Z,68.00
2023-01-17T08:08:59.351Z,67.33
2023-01-17T08:11:57.080Z,67.17
2023-01-17T08:14:54.922Z,67.57
2023-01-17T08:17:54.374Z,68.17
2023-01-17T08:20:52.285Z,67.23
2023-01-17T08:23:50.972Z,69.80
2023-01-17T08:26:48.828Z,69.40
2023-01-17T08:29:48.802Z,74.70
2023-01-17T08:32:46.721Z,73.47
2023-01-17T08:36:02.651Z,68.93
2023-01-17T08:39:00.571Z,69.60
2023-01-17T08:41:58.261Z,73.60
2023-01-17T08:44:56.060Z,70.97
2023-01-17T08:47:54.166Z,68.80
2023-01-17T08:50:52.286Z,75.53
2023-01-17T08:53:49.979Z,70.70
2023-01-17T08:56:48.357Z,71.53
2023-01-17T08:59:46.159Z,72.07
2023-01-17T09:02:44.067Z,72.07
2023-01-17T09:05:41.847Z,77.50
2023-01-17T09:08:40.566Z,73.17
2023-01-17T09:11:39.280Z,74.63
2023-01-17T09:14:38.352Z,70.00
2023-01-17T09:17:36.137Z,77.90
2023-01-17T09:20:33.929Z,73.17
2023-01-17T09:23:31.630Z,71.70
2023-01-17T09:26:30.553Z,69.07
2023-01-17T09:29:29.040Z,73.77
2023-01-17T09:32:26.905Z,74.67
2023-01-17T09:35:24.806Z,75.17
2023-01-17T09:38:24.457Z,77.67
2023-01-17T09:41:29.139Z,74.17
2023-01-17T09:44:39.455Z,72.23
2023-01-17T09:47:47.298Z,76.20
2023-01-17T09:50:51.199Z,72.05
2023-01-17T09:53:49.637Z,71.67
2023-01-17T09:56:55.816Z,72.67
2023-01-17T10:00:08.805Z,72.17
2023-01-17T10:03:28.381Z,72.72
2023-01-17T10:06:55.382Z,75.73
2023-01-17T10:10:16.183Z,69.57
2023-01-17T10:13:42.423Z,77.93
2023-01-17T10:16:58.808Z,74.45
2023-01-17T10:20:18.422Z,74.43
2023-01-17T10:23:38.445Z,80.47
2023-01-17T10:26:37.359Z,79.57
2023-01-17T10:29:36.658Z,78.80
2023-01-17T10:32:36.196Z,76.07
2023-01-17T10:35:37.759Z,77.70
2023-01-17T10:38:41.003Z,84.13
2023-01-17T10:41:43.023Z,74.65
2023-01-17T10:45:06.414Z,70.77
2023-01-17T10:48:26.765Z,70.57
2023-01-17T10:51:44.967Z,64.10
2023-01-17T10:55:04.520Z,71.27
2023-01-17T10:58:03.532Z,75.47
2023-01-17T11:01:06.797Z,63.47
2023-01-17T11:04:12.332Z,63.88
2023-01-17T11:07:14.297Z,72.83
2023-01-17T11:10:40.911Z,68.97
2023-01-17T11:13:40.077Z,65.70
2023-01-17T11:16:38.349Z,66.67
2023-01-17T11:19:39.072Z,66.33
2023-01-17T11:22:37.990Z,65.73
2023-01-17T11:25:36.929Z,67.80
2023-01-17T11:28:36.721Z,66.93
2023-01-17T11:31:34.569Z,67.60
2023-01-17T11:34:34.054Z,63.70
2023-01-17T11:37:31.933Z,62.10
2023-01-17T11:40:38.333Z,60.70
2023-01-17T11:43:52.162Z,55.73
2023-01-17T11:47:08.923Z,58.07
2023-01-17T11:50:27.474Z,61.23
2023-01-17T11:53:41.371Z,59.37
2023-01-17T11:56:41.314Z,59.37
2023-01-17T11:59:43.733Z,52.87
2023-01-17T12:03:02.248Z,52.80
2023-01-17T12:06:13.515Z,54.43
2023-01-17T12:09:36.295Z,50.27
2023-01-17T12:13:05.939Z,52.37
2023-01-17T12:16:34.017Z,50.60
2023-01-17T12:19:55.093Z,52.00
2023-01-17T12:23:22.112Z,52.90
2023-01-17T12:26:31.480Z,50.93
2023-01-17T12:29:54.156Z,46.73
2023-01-17T12:33:15.613Z,49.53
2023-01-17T12:36:49.609Z,52.50
2023-01-17T12:39:57.897Z,46.97
2023-01-17T12:43:06.642Z,48.67
2023-01-17T12:46:34.307Z,46.40
2023-01-17T12:50:07.344Z,51.93
2023-01-17T12:53:31.566Z,51.43
2023-01-17T12:56:39.031Z,47.60
2023-01-17T12:59:57.085Z,49.73
2023-01-17T13:03:15.008Z,48.27
2023-01-17T13:06:24.887Z,53.87
2023-01-17T13:09:24.437Z,53.03
2023-01-17T13:12:23.243Z,51.00
2023-01-17T13:15:26.261Z,48.63
2023-01-17T13:18:30.065Z,52.80
2023-01-17T13:21:30.979Z,49.90
2023-01-17T13:24:51.792Z,48.73
2023-01-17T13:28:14.953Z,48.57
2023-01-17T13:31:36.944Z,49.67
2023-01-17T13:34:57.371Z,50.05
2023-01-17T13:38:11.524Z,51.37
2023-01-17T13:41:49.414Z,52.07
2023-01-17T13:44:47.533Z,51.80
2023-01-17T13:47:48.882Z,49.70
2023-01-17T13:50:51.319Z,54.37
2023-01-17T13:53:49.226Z,60.30
2023-01-17T13:56:48.072Z,55.80
2023-01-17T13:59:45.891Z,56.43
2023-01-17T14:02:46.452Z,58.23
2023-01-17T14:05:50.165Z,51.90
2023-01-17T14:08:49.475Z,49.97
2023-01-17T14:12:22.478Z,49.67
2023-01-17T14:15:25.435Z,49.77
2023-01-17T14:18:41.521Z,50.35
2023-01-17T14:21:39.277Z,50.23
2023-01-17T14:25:00.839Z,48.97
2023-01-17T14:28:03.768Z,48.80
2023-01-17T14:31:08.966Z,50.50
2023-01-17T14:34:14.544Z,49.33
2023-01-17T14:37:33.995Z,53.00
2023-01-17T14:40:36.326Z,48.07
2023-01-17T14:43:38.433Z,48.83
2023-01-17T14:46:36.544Z,47.00
2023-01-17T14:49:35.414Z,48.57
2023-01-17T14:52:33.380Z,47.00
2023-01-17T14:55:36.901Z,44.37
2023-01-17T14:58:36.904Z,40.57
2023-01-17T15:01:37.190Z,38.37
2023-01-17T15:04:40.038Z,39.20
2023-01-17T15:07:44.639Z,39.33
2023-01-17T15:10:55.004Z,38.07
2023-01-17T15:13:57.884Z,38.70
2023-01-17T15:16:58.880Z,37.63
2023-01-17T15:20:07.411Z,36.70
2023-01-17T15:23:05.786Z,34.40
2023-01-17T15:26:05.280Z,32.90
2023-01-17T15:29:09.808Z,36.00
2023-01-17T15:32:20.519Z,38.07
2023-01-17T15:35:19.574Z,35.03
2023-01-17T15:38:17.697Z,37.67
2023-01-17T15:41:17.600Z,35.07
2023-01-17T15:44:46.417Z,36.23
2023-01-17T15:47:45.808Z,32.03
2023-01-17T15:50:48.182Z,36.73
2023-01-17T15:53:45.930Z,34.07
2023-01-17T15:56:46.078Z,32.20
2023-01-17T15:59:51.941Z,31.90
2023-01-17T16:02:56.231Z,33.83
2023-01-17T16:05:57.375Z,34.40
2023-01-17T16:08:55.666Z,32.50
2023-01-17T16:11:55.665Z,28.50
2023-01-17T16:15:11.328Z,27.43
2023-01-17T16:18:24.861Z,29.33
2023-01-17T16:21:26.784Z,26.35
2023-01-17T16:24:25.971Z,28.50
2023-01-17T16:27:25.485Z,30.53
2023-01-17T16:30:23.208Z,28.13
2023-01-17T16:33:21.424Z,25.90
2023-01-17T16:36:21.861Z,27.70
2023-01-17T16:39:20.302Z,26.03
2023-01-17T16:42:18.377Z,27.87
2023-01-17T16:45:17.263Z,26.87
2023-01-17T16:48:19.231Z,26.97
2023-01-17T16:51:17.653Z,26.27
2023-01-17T16:54:17.130Z,30.43
2023-01-17T16:57:16.184Z,30.97
2023-01-17T17:00:14.408Z,38.90
2023-01-17T17:03:21.786Z,49.23
2023-01-17T17:06:20.545Z,36.33
2023-01-17T17:09:21.553Z,34.03
2023-01-17T17:12:19.396Z,40.63
2023-01-17T17:15:23.487Z,47.87
2023-01-17T17:18:21.873Z,56.37
2023-01-17T17:21:20.006Z,56.93
2023-01-17T17:24:18.090Z,63.13
2023-01-17T17:27:16.189Z,51.77
2023-01-17T17:30:14.553Z,51.57
2023-01-17T17:33:12.592Z,57.87
2023-01-17T17:36:10.689Z,46.07
2023-01-17T17:39:12.666Z,64.23
2023-01-17T17:42:11.824Z,60.30
2023-01-17T17:45:10.525Z,60.10
2023-01-17T17:48:08.404Z,47.60
2023-01-17T17:51:07.011Z,42.10
2023-01-17T17:54:10.059Z,41.17
2023-01-17T17:57:08.213Z,40.67
2023-01-17T18:00:07.145Z,41.40
2023-01-17T18:03:05.150Z,41.67
2023-01-17T18:06:04.922Z,39.93
2023-01-17T18:09:03.922Z,41.30
2023-01-17T18:12:03.332Z,42.10
2023-01-17T18:15:01.140Z,44.70
2023-01-17T18:17:59.467Z,44.33
2023-01-17T18:21:06.885Z,40.50
2023-01-17T18:24:09.076Z,37.93
2023-01-17T18:27:07.064Z,34.90
2023-01-17T18:30:05.191Z,32.13
2023-01-17T18:33:03.088Z,35.03
2023-01-17T18:36:02.707Z,32.53
2023-01-17T18:39:03.227Z,30.83
2023-01-17T18:42:01.253Z,33.83
2023-01-17T18:44:59.123Z,27.93
2023-01-17T18:47:57.015Z,28.60
2023-01-17T18:50:57.657Z,26.10
2023-01-17T18:53:55.367Z,29.10
2023-01-17T18:56:55.849Z,30.03
2023-01-17T18:59:54.118Z,32.37
2023-01-17T19:02:52.093Z,27.13
2023-01-17T19:05:50.040Z,26.33
2023-01-17T19:08:50.091Z,20.27
2023-01-17T19:11:47.948Z,21.77
2023-01-17T19:14:45.864Z,21.53
2023-01-17T19:17:43.567Z,22.17
2023-01-17T19:20:41.433Z,23.80
2023-01-17T19:23:39.972Z,24.00
2023-01-17T19:26:38.085Z,19.87
2023-01-17T19:29:36.726Z,19.33
2023-01-17T19:32:34.894Z,21.50
2023-01-17T19:35:32.923Z,21.87
2023-01-17T19:38:32.423Z,22.70
2023-01-17T19:41:31.152Z,18.77
2023-01-17T19:44:29.098Z,21.13
2023-01-17T19:47:26.826Z,32.33
2023-01-17T19:50:24.869Z,30.60
2023-01-17T19:53:23.966Z,39.00
2023-01-17T19:56:25.136Z,33.53
2023-01-17T19:59:24.022Z,27.07
2023-01-17T20:02:22.098Z,25.83
2023-01-17T20:05:20.071Z,24.00
2023-01-17T20:08:18.608Z,23.87
2023-01-17T20:11:20.001Z,26.67
2023-01-17T20:14:18.108Z,28.67
2023-01-17T20:17:16.098Z,26.20
2023-01-17T20:20:14.179Z,32.70
2023-01-17T20:23:12.041Z,25.67
2023-01-17T20:26:12.721Z,29.03
2023-01-17T20:29:15.534Z,35.43
2023-01-17T20:32:13.602Z,34.35
2023-01-17T20:35:13.320Z,37.00
2023-01-17T20:38:12.395Z,34.50
2023-01-17T20:41:27.350Z,30.57
2023-01-17T20:44:25.308Z,33.03
2023-01-17T20:47:23.385Z,31.10
2023-01-17T20:50:21.675Z,29.83
2023-01-17T20:53:22.162Z,31.73
2023-01-17T20:56:20.763Z,29.37
2023-01-17T20:59:21.982Z,32.87
2023-01-17T21:02:23.022Z,30.00
2023-01-17T21:05:21.060Z,29.63
2023-01-17T21:08:19.283Z,29.77
2023-01-17T21:11:20.034Z,22.97
2023-01-17T21:17:50.529Z,25.33
2023-01-17T21:20:49.139Z,23.40
2023-01-17T21:23:47.089Z,27.93
2023-01-17T21:26:46.408Z,39.53
2023-01-17T21:29:44.247Z,41.40
2023-01-17T21:32:42.289Z,39.30
2023-01-17T21:35:40.044Z,45.43
2023-01-17T21:38:39.411Z,39.47
2023-01-17T21:41:40.038Z,38.00
2023-01-17T21:44:38.706Z,36.07
2023-01-17T21:47:36.803Z,36.40
2023-01-17T21:50:35.339Z,34.73
2023-01-17T21:53:35.258Z,33.43
2023-01-17T21:56:48.524Z,28.37
2023-01-17T21:59:46.299Z,27.20
2023-01-17T22:02:49.348Z,24.17
2023-01-17T22:05:49.947Z,23.15
2023-01-17T22:08:48.285Z,24.73
2023-01-17T22:11:46.179Z,23.87
2023-01-17T22:14:44.146Z,27.20
2023-01-17T22:17:42.853Z,24.00
2023-01-17T22:20:42.001Z,26.90
2023-01-17T22:23:40.702Z,29.03
2023-01-17T22:26:41.744Z,28.37
2023-01-17T22:29:39.672Z,25.60
2023-01-17T22:32:37.642Z,26.07
2023-01-17T22:35:35.386Z,22.80
2023-01-17T22:38:34.333Z,20.70
2023-01-17T22:41:33.337Z,19.63
2023-01-17T22:44:31.258Z,18.70
2023-01-17T22:47:29.013Z,17.90
2023-01-17T22:50:26.882Z,19.30
2023-01-17T22:53:24.927Z,16.53
2023-01-17T22:56:25.276Z,21.53
2023-01-17T22:59:23.103Z,22.83
2023-01-17T23:02:21.096Z,22.87
2023-01-17T23:05:26.747Z,23.57
2023-01-17T23:08:24.573Z,18.90
2023-01-17T23:11:45.144Z,18.43
2023-01-17T23:14:58.285Z,18.07
2023-01-17T23:18:11.171Z,17.77
2023-01-17T23:24:07.500Z,12.10
2023-01-17T23:27:20.690Z,13.87
2023-01-17T23:30:21.228Z,13.93
2023-01-17T23:33:19.325Z,10.47
2023-01-17T23:36:17.134Z,13.33
2023-01-17T23:39:14.936Z,13.57
2023-01-17T23:42:27.901Z,15.43
2023-01-17T23:45:25.876Z,19.70
2023-01-17T23:48:26.680Z,24.57
2023-01-17T23:51:24.578Z,21.70
2023-01-17T23:54:22.287Z,20.90
2023-01-17T23:57:20.328Z,16.60
